Time;durP1;ratioP1;P1;durP2;ratioP2;P2;SDS_P1;SDS_P2;PMS_P1;PMS_P2;Temp;Humidity;BMP_temperature;BMP_pressure;BME280_temperature;BME280_humidity;BME280_pressure;Samples;Min_cycle;Max_cycle;Signal;HPM_P1;HPM_P2
2022/04/10 00:00:25;;;;;;;9.30;2.73;;;;;;;2.51;91.57;99854.53;3743148;78;98260;-86
2022/04/10 00:05:26;;;;;;;6.40;2.33;;;;;;;2.62;91.21;99873.34;3718081;78;98036;-86
2022/04/10 00:10:29;;;;;;;7.07;2.03;;;;;;;2.60;91.27;99876.39;3736615;78;98047;-84
2022/04/10 00:15:30;;;;;;;7.83;2.20;;;;;;;2.60;91.14;99870.95;3721841;78;98241;-85
2022/04/10 00:20:31;;;;;;;8.73;1.93;;;;;;;2.58;91.07;99876.49;3733220;78;98216;-85
2022/04/10 00:25:38;;;;;;;15.77;2.97;;;;;;;2.58;90.80;99876.49;3708666;78;99396;-87
2022/04/10 00:30:43;;;;;;;7.07;2.27;;;;;;;2.56;90.88;99869.26;3719272;78;98651;-86
2022/04/10 00:35:44;;;;;;;9.43;2.17;;;;;;;2.54;90.78;99875.57;3702147;78;97987;-86
2022/04/10 00:40:46;;;;;;;12.20;2.30;;;;;;;2.51;90.79;99881.11;3698040;78;98259;-87
2022/04/10 00:45:47;;;;;;;6.67;2.20;;;;;;;2.50;90.90;99892.30;3735086;78;98329;-87
2022/04/10 00:56:07;;;;;;;5.67;2.22;;;;;;;2.44;91.29;99902.60;3672779;78;98325;-85
2022/04/10 01:01:08;;;;;;;8.40;2.12;;;;;;;2.41;91.92;99903.27;3612276;80;97445;-86
2022/04/10 01:06:09;;;;;;;10.20;2.60;;;;;;;2.36;92.94;99904.83;3613510;79;98294;-85
2022/04/10 01:11:11;;;;;;;7.47;2.47;;;;;;;2.36;92.94;99904.83;3647078;79;34874;-86
2022/04/10 01:16:13;;;;;;;6.93;2.80;;;;;;;2.33;92.59;99912.30;3610562;79;98428;-86
2022/04/10 01:21:19;;;;;;;7.40;2.30;;;;;;;2.33;93.48;99910.95;3643027;79;98300;-87
2022/04/10 01:26:22;;;;;;;8.33;2.80;;;;;;;2.30;93.49;99900.73;3617491;79;98359;-86
2022/04/10 01:31:23;;;;;;;7.77;2.97;;;;;;;2.30;93.89;99907.53;3626717;79;98251;-86
2022/04/10 01:36:25;;;;;;;6.30;2.77;;;;;;;2.31;94.19;99908.34;3632820;79;98334;-86
2022/04/10 01:41:28;;;;;;;8.80;2.57;;;;;;;2.33;94.37;99915.57;3630858;79;34927;-84
2022/04/10 01:46:31;;;;;;;6.85;2.70;;;;;;;2.36;94.47;99914.91;3649160;79;98086;-83
2022/04/10 01:51:33;;;;;;;6.85;2.95;;;;;;;2.38;94.55;99918.88;3628403;79;98089;-85
2022/04/10 01:56:34;;;;;;;7.75;2.55;;;;;;;2.39;94.49;99915.03;3630963;79;98366;-85
2022/04/10 02:01:35;;;;;;;11.87;2.70;;;;;;;2.39;94.17;99925.89;3617512;79;98354;-83
2022/04/10 02:06:37;;;;;;;5.70;2.87;;;;;;;2.37;94.31;99920.02;3619889;79;98565;-86
2022/04/10 02:11:38;;;;;;;10.33;2.77;;;;;;;2.36;93.99;99925.77;3636899;79;34821;-86
2022/04/10 02:16:39;;;;;;;7.30;2.50;;;;;;;2.31;94.23;99929.50;3611714;79;98398;-86
2022/04/10 02:21:40;;;;;;;10.60;4.50;;;;;;;2.28;93.99;99926.09;3626668;79;98146;-85
2022/04/10 02:26:41;;;;;;;6.37;2.30;;;;;;;2.24;93.76;99930.59;3598687;79;98622;-85
2022/04/10 02:31:41;;;;;;;7.27;2.40;;;;;;;2.20;93.82;99925.59;3602282;79;98391;-87
2022/04/10 02:36:42;;;;;;;8.80;2.98;;;;;;;2.13;94.46;99911.00;3599523;79;98321;-86
2022/04/10 02:41:43;;;;;;;9.10;3.43;;;;;;;2.11;94.02;99928.16;3626261;79;34821;-85
2022/04/10 02:46:44;;;;;;;8.68;2.27;;;;;;;2.09;94.00;99933.91;3639365;79;98351;-85
2022/04/10 02:51:47;;;;;;;14.77;3.00;;;;;;;2.04;93.97;99937.41;3587584;81;98573;-86
2022/04/10 02:56:47;;;;;;;9.18;3.27;;;;;;;2.02;94.31;99940.45;3610333;80;98464;-86
2022/04/10 03:01:50;;;;;;;8.80;2.50;;;;;;;2.00;94.41;99939.19;3618161;80;98364;-85
2022/04/10 03:06:51;;;;;;;9.28;3.10;;;;;;;1.99;94.65;99946.55;3626052;79;98314;-86
2022/04/10 03:11:52;;;;;;;12.45;3.95;;;;;;;1.97;94.76;99949.37;3636666;80;34100;-85
2022/04/10 03:16:53;;;;;;;13.07;4.00;;;;;;;1.95;95.18;99943.45;3626290;80;98414;-87
2022/04/10 03:21:54;;;;;;;5.57;2.53;;;;;;;1.94;94.76;99948.66;3626339;80;98623;-86
2022/04/10 03:26:55;;;;;;;7.93;2.50;;;;;;;1.91;95.16;99952.83;3636778;80;98615;-84
2022/04/10 03:31:55;;;;;;;6.67;2.80;;;;;;;1.91;95.26;99961.55;3641479;80;98186;-86
2022/04/10 03:36:56;;;;;;;8.30;3.33;;;;;;;1.91;95.53;99969.11;3622796;80;98341;-85
2022/04/10 03:41:57;;;;;;;12.67;3.27;;;;;;;1.91;96.31;99968.33;3628049;80;32530;-83
2022/04/10 03:46:58;;;;;;;10.40;3.03;;;;;;;1.90;95.77;99970.23;3631581;81;98586;-85
2022/04/10 03:51:59;;;;;;;11.00;3.00;;;;;;;1.91;95.76;99985.38;3643241;80;98313;-85
2022/04/10 03:57:00;;;;;;;11.17;3.37;;;;;;;1.91;95.72;99992.17;3668384;78;98873;-85
2022/04/10 04:02:00;;;;;;;9.63;3.20;;;;;;;1.93;95.61;99998.63;3718285;78;98489;-86
2022/04/10 04:07:01;;;;;;;9.97;2.80;;;;;;;1.96;95.87;100010.16;3718494;77;98761;-84
2022/04/10 04:12:02;;;;;;;8.37;2.63;;;;;;;1.98;95.96;100011.42;3763251;77;26108;-85
2022/04/10 04:17:04;;;;;;;10.20;2.57;;;;;;;2.01;95.92;100020.28;3765216;77;98194;-87
2022/04/10 04:22:05;;;;;;;9.23;2.70;;;;;;;2.02;96.08;100021.86;3735161;77;98415;-84
2022/04/10 04:27:06;;;;;;;8.63;3.37;;;;;;;2.04;96.21;100028.32;3727820;78;98406;-86
2022/04/10 04:32:08;;;;;;;9.73;3.23;;;;;;;2.07;95.91;100036.59;3730707;77;98404;-86
2022/04/10 04:37:09;;;;;;;9.97;3.20;;;;;;;2.10;96.01;100050.87;3737581;78;98494;-86
2022/04/10 04:42:10;;;;;;;12.40;3.30;;;;;;;2.13;95.99;100058.92;3747110;78;98753;-84
2022/04/10 04:47:11;;;;;;;12.73;3.57;;;;;;;2.15;96.07;100056.66;3697565;78;98234;-82
2022/04/10 04:52:12;;;;;;;10.70;3.37;;;;;;;2.18;95.87;100059.50;3755701;77;98656;-85
2022/04/10 04:57:13;;;;;;;13.83;4.33;;;;;;;2.20;95.95;100077.60;3744936;77;99024;-86
2022/04/10 05:02:14;;;;;;;11.60;3.90;;;;;;;2.23;95.77;100081.03;3749785;78;98667;-83
2022/04/10 05:07:14;;;;;;;9.83;3.92;;;;;;;2.28;96.49;100086.82;3741285;78;98605;-84
2022/04/10 05:12:15;;;;;;;10.00;3.60;;;;;;;2.33;96.38;100087.98;3709660;78;98474;-85
2022/04/10 05:17:16;;;;;;;11.53;4.03;;;;;;;2.39;96.19;100099.69;3733431;78;98115;-85
2022/04/10 05:22:17;;;;;;;12.40;4.27;;;;;;;2.43;95.96;100116.92;3749419;78;98486;-87
2022/04/10 05:27:21;;;;;;;14.40;5.00;;;;;;;2.46;95.66;100117.59;3725237;78;98574;-85
2022/04/10 05:32:22;;;;;;;12.00;4.23;;;;;;;2.52;95.79;100132.56;3715368;78;99131;-85
2022/04/10 05:37:25;;;;;;;11.53;4.17;;;;;;;2.55;95.50;100125.13;3707485;78;99170;-85
2022/04/10 05:42:26;;;;;;;12.47;4.37;;;;;;;2.61;95.38;100130.59;3738218;78;98807;-85
2022/04/10 05:47:27;;;;;;;17.30;6.50;;;;;;;2.66;95.35;100133.11;3720057;78;98375;-85
2022/04/10 05:52:30;;;;;;;10.87;4.53;;;;;;;2.75;95.22;100133.05;3734057;78;98616;-87
2022/04/10 05:57:33;;;;;;;12.10;5.10;;;;;;;2.90;95.29;100137.88;3714086;78;98450;-85
2022/04/10 06:02:34;;;;;;;12.57;5.00;;;;;;;3.02;94.92;100140.09;3742879;78;98774;-86
2022/04/10 06:07:35;;;;;;;15.73;6.67;;;;;;;3.16;94.59;100151.45;3729961;78;98755;-83
2022/04/10 06:12:36;;;;;;;13.03;4.47;;;;;;;3.31;94.44;100152.75;3728801;78;99079;-84
2022/04/10 06:17:37;;;;;;;13.13;4.80;;;;;;;3.42;93.55;100153.36;3742046;78;98317;-86
2022/04/10 06:22:38;;;;;;;9.60;3.97;;;;;;;3.49;93.32;100152.23;3681982;78;97839;-85
2022/04/10 06:27:39;;;;;;;11.07;4.23;;;;;;;3.56;92.76;100168.02;3733858;78;98282;-85
2022/04/10 06:32:40;;;;;;;10.25;4.17;;;;;;;3.59;92.42;100172.22;3725984;78;98598;-89
2022/04/10 06:37:43;;;;;;;14.00;5.07;;;;;;;3.63;92.13;100170.98;3730964;77;98719;-86
2022/04/10 06:42:46;;;;;;;9.90;4.77;;;;;;;3.66;92.02;100178.48;3676554;78;98627;-85
2022/04/10 06:47:47;;;;;;;15.38;5.30;;;;;;;3.72;91.85;100183.93;3706514;78;97985;-87
2022/04/10 06:52:47;;;;;;;13.07;5.40;;;;;;;3.76;91.93;100175.33;3738433;77;98490;-84
2022/04/10 06:57:48;;;;;;;14.50;5.15;;;;;;;3.85;91.48;100187.70;3723125;78;98457;-85
2022/04/10 07:02:49;;;;;;;11.03;4.60;;;;;;;3.92;91.20;100188.48;3713024;78;98641;-85
2022/04/10 07:07:51;;;;;;;15.37;6.37;;;;;;;4.05;91.21;100195.55;3739965;78;98631;-85
2022/04/10 07:12:52;;;;;;;11.07;4.87;;;;;;;4.14;90.65;100203.83;3735222;78;98765;-86
2022/04/10 07:17:55;;;;;;;16.03;6.67;;;;;;;4.24;90.40;100202.58;3704899;78;98529;-86
2022/04/10 07:28:15;;;;;;;10.28;4.72;;;;;;;4.35;89.45;100214.05;3740278;78;98799;-84
2022/04/10 07:33:16;;;;;;;11.40;4.50;;;;;;;4.36;88.97;100222.45;3734827;78;98708;-86
2022/04/10 07:38:17;;;;;;;16.67;6.35;;;;;;;4.37;88.69;100234.93;3722571;78;98715;-85
2022/04/10 07:43:20;;;;;;;21.43;7.50;;;;;;;4.37;88.86;100236.30;3759998;78;98731;-86
2022/04/10 07:48:21;;;;;;;19.27;6.50;;;;;;;4.45;88.35;100238.69;3698529;78;98652;-87
2022/04/10 07:53:22;;;;;;;12.87;4.53;;;;;;;4.51;88.44;100244.94;3710633;78;33253;-84
2022/04/10 07:58:23;;;;;;;14.37;6.20;;;;;;;4.55;87.91;100243.13;3737612;78;98526;-85
2022/04/10 08:03:24;;;;;;;22.13;6.93;;;;;;;4.59;87.61;100252.19;3745891;78;98652;-83
2022/04/10 08:08:25;;;;;;;18.83;6.23;;;;;;;4.65;87.67;100254.91;3715854;78;98792;-85
2022/04/10 08:13:27;;;;;;;11.90;4.58;;;;;;;4.70;86.96;100257.41;3747031;78;98577;-86
2022/04/10 08:18:30;;;;;;;17.35;5.20;;;;;;;4.80;86.86;100261.03;3687987;78;98797;-88
2022/04/10 08:23:34;;;;;;;18.03;7.43;;;;;;;4.90;86.69;100272.84;3741417;78;25891;-87
2022/04/10 08:28:35;;;;;;;14.18;5.00;;;;;;;4.99;85.85;100274.08;3738761;78;98553;-87
2022/04/10 08:33:38;;;;;;;15.53;5.07;;;;;;;4.99;85.58;100276.81;3722779;78;98518;-84
2022/04/10 08:38:39;;;;;;;13.67;5.07;;;;;;;5.10;85.56;100282.02;3737669;78;98678;-88
2022/04/10 08:43:42;;;;;;;11.50;5.50;;;;;;;5.20;84.72;100286.45;3740687;78;98587;-88
2022/04/10 08:48:44;;;;;;;10.93;4.23;;;;;;;5.30;85.04;100302.90;3692623;78;98690;-86
2022/04/10 08:53:47;;;;;;;12.63;4.20;;;;;;;5.44;84.07;100297.28;3755889;78;26219;-84
2022/04/10 08:58:49;;;;;;;15.10;4.67;;;;;;;5.57;84.31;100300.19;3748081;78;98461;-85
2022/04/10 09:03:52;;;;;;;12.27;4.63;;;;;;;5.74;83.70;100301.25;3726172;78;98576;-89
2022/04/10 09:09:11;;;;;;;11.60;4.30;;;;;;;5.90;81.56;100295.89;3721506;78;98722;-87
2022/04/10 09:14:27;;;;;;;10.03;3.70;;;;;;;6.05;82.89;100299.23;3701378;78;98665;-90
2022/04/10 09:19:44;;;;;;;11.63;3.83;;;;;;;6.11;79.77;100315.00;3705777;78;26020;-88
2022/04/10 09:25:07;;;;;;;10.77;4.47;;;;;;;6.21;79.82;100302.79;3732312;78;98727;-86
2022/04/10 09:30:13;;;;;;;13.70;4.50;;;;;;;6.36;80.22;100295.16;3731708;78;25853;-85
2022/04/10 09:35:18;;;;;;;8.70;2.93;;;;;;;6.59;79.19;100295.56;3690225;78;98938;-85
2022/04/10 09:40:35;;;;;;;10.60;4.03;;;;;;;6.75;79.47;100294.17;3707864;78;98324;-90
2022/04/10 09:45:43;;;;;;;13.70;3.70;;;;;;;7.03;78.02;100303.84;3703272;78;98664;-89
2022/04/10 09:50:45;;;;;;;12.17;3.20;;;;;;;7.24;77.97;100303.52;3731187;78;98729;-90
2022/04/10 09:56:00;;;;;;;10.13;4.17;;;;;;;7.41;77.12;100305.88;3701860;78;98715;-85
2022/04/10 10:01:03;;;;;;;7.40;3.00;;;;;;;7.51;75.41;100307.47;3737133;78;98738;-86
2022/04/10 10:06:09;;;;;;;6.50;2.90;;;;;;;7.48;74.20;100313.64;3699876;78;98246;-92
2022/04/10 10:11:13;;;;;;;11.43;3.50;;;;;;;7.32;74.87;100307.42;3697082;78;98572;-86
2022/04/10 10:16:14;;;;;;;8.67;3.13;;;;;;;7.32;73.64;100317.01;3671769;78;98655;-90
2022/04/10 10:21:17;;;;;;;12.07;2.95;;;;;;;7.31;74.47;100307.80;3739846;78;98462;-90
2022/04/10 10:26:58;;;;;;;7.90;2.47;;;;;;;7.26;73.28;100319.03;3708063;78;98874;-90
2022/04/10 10:32:36;;;;;;;8.00;2.90;;;;;;;7.13;73.92;100313.44;3712009;78;98480;-89
2022/04/10 10:37:55;;;;;;;8.60;3.00;;;;;;;7.08;74.85;100310.98;3699294;78;100155;-93
2022/04/10 10:43:04;;;;;;;9.63;2.87;;;;;;;7.12;73.82;100317.33;3738868;78;98598;-89
2022/04/10 10:48:39;;;;;;;7.23;2.20;;;;;;;7.22;74.10;100319.52;3706305;78;98041;-90
2022/04/10 10:53:58;;;;;;;10.47;2.67;;;;;;;7.31;74.03;100316.02;3716814;78;98289;-90
2022/04/10 10:59:32;;;;;;;10.15;3.10;;;;;;;7.33;73.33;100304.13;3731574;78;98846;-88
2022/04/10 11:04:50;;;;;;;8.45;2.95;;;;;;;7.53;73.48;100315.33;3713843;79;98535;-88
2022/04/10 11:09:59;;;;;;;7.63;2.27;;;;;;;8.10;71.54;100309.81;3736524;78;98551;-87
2022/04/10 11:15:09;;;;;;;8.60;2.45;;;;;;;8.48;70.53;100302.34;3719041;78;98491;-88
2022/04/10 11:20:20;;;;;;;8.13;2.00;;;;;;;8.64;67.11;100301.63;3703843;79;98571;-87
2022/04/10 11:25:39;;;;;;;5.43;2.00;;;;;;;8.55;65.63;100301.64;3691482;78;98533;-85
2022/04/10 11:30:41;;;;;;;7.28;2.40;;;;;;;8.49;66.84;100323.11;3715921;79;25927;-85
2022/04/10 11:35:47;;;;;;;11.60;2.60;;;;;;;8.31;68.14;100322.02;3672037;79;98451;-85
2022/04/10 11:40:51;;;;;;;7.62;3.35;;;;;;;8.13;67.74;100330.44;3682683;78;98829;-85
2022/04/10 11:45:53;;;;;;;9.05;2.70;;;;;;;8.07;69.59;100318.19;3692412;79;98512;-85
2022/04/10 11:51:08;;;;;;;10.82;2.90;;;;;;;8.23;68.91;100321.66;3702511;78;98582;-86
2022/04/10 11:56:14;;;;;;;8.83;3.07;;;;;;;8.60;68.81;100313.12;3689420;79;98780;-83
2022/04/10 12:01:15;;;;;;;13.00;4.17;;;;;;;8.99;66.99;100314.53;3719919;78;98554;-84
2022/04/10 12:06:21;;;;;;;10.23;2.45;;;;;;;9.09;67.71;100326.83;3696885;78;98962;-83
2022/04/10 12:11:22;;;;;;;12.37;2.70;;;;;;;9.20;65.02;100318.17;3722458;78;98522;-84
2022/04/10 12:16:24;;;;;;;7.27;2.20;;;;;;;9.50;65.45;100315.69;3721437;77;98735;-87
2022/04/10 12:21:28;;;;;;;8.90;2.77;;;;;;;9.66;63.21;100312.75;3716940;77;98563;-85
2022/04/10 12:26:34;;;;;;;10.00;2.67;;;;;;;9.74;63.24;100309.72;3698345;78;99041;-83
2022/04/10 12:31:42;;;;;;;5.87;2.20;;;;;;;10.01;63.84;100306.28;3722518;77;98628;-86
2022/04/10 12:36:51;;;;;;;9.93;2.65;;;;;;;9.90;62.02;100299.88;3699041;78;98853;-89
2022/04/10 12:42:11;;;;;;;8.37;2.07;;;;;;;9.64;60.05;100289.76;3710813;77;98320;-84
2022/04/10 12:47:14;;;;;;;7.83;2.07;;;;;;;9.61;60.95;100297.95;3694133;78;98569;-85
2022/04/10 12:52:19;;;;;;;34.63;12.07;;;;;;;9.66;62.05;100302.53;3727165;77;98970;-84
2022/04/10 12:57:28;;;;;;;6.87;2.20;;;;;;;9.59;60.88;100315.41;3721130;77;99011;-85
2022/04/10 13:02:35;;;;;;;7.37;2.10;;;;;;;9.39;60.24;100324.94;3685726;78;98529;-86
2022/04/10 13:07:42;;;;;;;29.07;7.90;;;;;;;9.09;60.59;100326.27;3646549;79;98450;-89
2022/04/10 13:12:42;;;;;;;;;;;;;;;8.82;58.78;100331.52;3694104;79;25958;-84
2022/04/10 13:17:46;;;;;;;10.20;2.53;;;;;;;8.78;61.02;100326.55;3695154;79;84271;-89
2022/04/10 13:22:51;;;;;;;7.55;2.20;;;;;;;9.05;60.50;100323.27;3696480;79;98554;-84
2022/04/10 13:27:55;;;;;;;15.98;4.00;;;;;;;9.05;61.80;100328.16;3682497;79;98566;-85
2022/04/10 13:33:02;;;;;;;11.60;5.55;;;;;;;8.98;63.23;100329.42;3704008;77;98714;-83
2022/04/10 13:38:02;;;;;;;8.65;3.35;;;;;;;8.89;64.38;100334.97;3686623;78;98776;-84
2022/04/10 13:43:04;;;;;;;9.53;2.23;;;;;;;8.97;64.36;100340.20;3714680;77;33349;-86
2022/04/10 13:48:08;;;;;;;13.73;3.07;;;;;;;8.92;63.27;100347.38;3681710;77;98335;-86
2022/04/10 13:53:11;;;;;;;7.80;1.70;;;;;;;8.78;62.01;100340.86;3701693;78;98576;-84
2022/04/10 13:58:12;;;;;;;6.07;1.40;;;;;;;8.65;63.37;100353.16;3674981;78;98449;-84
2022/04/10 14:03:13;;;;;;;3.70;1.03;;;;;;;8.50;63.94;100358.20;3713819;78;98472;-84
2022/04/10 14:08:24;;;;;;;4.33;1.27;;;;;;;8.28;65.18;100363.86;3683689;78;98528;-85
2022/04/10 14:13:30;;;;;;;4.03;1.20;;;;;;;8.04;65.79;100366.89;3673698;77;25950;-86
2022/04/10 14:18:28;;;;;;;5.20;1.40;;;;;;;8.12;66.31;100354.89;3647448;78;98173;-84
2022/04/10 14:23:29;;;;;;;5.93;1.40;;;;;;;8.18;66.03;100360.89;3711294;78;98343;-86
2022/04/10 14:28:31;;;;;;;6.27;2.10;;;;;;;8.18;66.64;100363.03;3684392;78;98535;-83
2022/04/10 14:33:37;;;;;;;8.57;2.87;;;;;;;8.47;67.61;100355.61;3707488;78;98451;-87
2022/04/10 14:38:40;;;;;;;6.23;2.00;;;;;;;8.70;67.03;100356.97;3699919;78;98544;-84
2022/04/10 14:43:42;;;;;;;5.60;1.90;;;;;;;8.68;66.97;100366.94;3681362;76;98560;-85
2022/04/10 14:48:43;;;;;;;7.62;2.00;;;;;;;8.46;67.49;100376.54;3652982;78;98269;-80
2022/04/10 14:53:44;;;;;;;7.23;2.10;;;;;;;8.23;69.35;100379.23;3570682;80;98341;-80
2022/04/10 14:58:46;;;;;;;7.83;1.77;;;;;;;7.88;70.65;100372.20;3550769;82;98916;-81
2022/04/10 15:03:48;;;;;;;4.87;1.82;;;;;;;7.57;70.64;100355.31;3550122;82;98488;-81
2022/04/10 15:08:49;;;;;;;7.12;1.57;;;;;;;7.37;71.57;100356.42;3533779;80;98439;-79
2022/04/10 15:13:51;;;;;;;9.10;3.50;;;;;;;7.26;71.32;100354.62;3556335;81;98507;-81
2022/04/10 15:18:53;;;;;;;7.73;2.30;;;;;;;7.22;73.10;100352.37;3563939;80;98148;-80
2022/04/10 15:23:56;;;;;;;6.60;1.80;;;;;;;7.17;73.85;100353.44;3512275;82;98537;-78
2022/04/10 15:28:56;;;;;;;11.40;3.80;;;;;;;7.07;72.83;100355.34;3551723;82;98324;-79
2022/04/10 15:34:02;;;;;;;12.20;3.17;;;;;;;7.06;71.00;100351.03;3525524;81;98691;-78
2022/04/10 15:39:03;;;;;;;6.57;1.77;;;;;;;7.06;71.26;100350.23;3543450;80;99121;-80
2022/04/10 15:44:04;;;;;;;7.67;2.33;;;;;;;7.10;71.58;100347.78;3503448;82;98491;-81
2022/04/10 15:49:06;;;;;;;10.33;2.90;;;;;;;7.02;71.29;100366.56;3519296;81;33343;-79
2022/04/10 15:54:10;;;;;;;7.17;2.50;;;;;;;6.89;71.44;100366.45;3585038;79;98543;-79
2022/04/10 15:59:11;;;;;;;7.33;2.60;;;;;;;6.84;72.02;100367.27;3580668;81;99082;-80
2022/04/10 16:04:18;;;;;;;6.83;2.23;;;;;;;6.76;72.14;100362.20;3584700;79;98544;-80
2022/04/10 16:09:19;;;;;;;12.77;5.03;;;;;;;6.68;73.07;100406.13;3587684;81;98540;-78
2022/04/10 16:14:27;;;;;;;9.83;3.90;;;;;;;6.39;73.63;100425.08;3582521;81;99104;-80
2022/04/10 16:19:29;;;;;;;10.80;3.97;;;;;;;5.89;74.37;100417.98;3596385;81;26104;-80
2022/04/10 16:24:30;;;;;;;56.83;21.27;;;;;;;5.67;75.97;100411.64;3583882;81;98395;-81
2022/04/10 16:34:50;;;;;;;13.53;4.75;;;;;;;5.54;77.45;100403.81;3585792;80;98735;-81
2022/04/10 16:39:53;;;;;;;11.80;4.40;;;;;;;5.57;78.78;100413.47;3597963;80;98688;-82
2022/04/10 16:44:55;;;;;;;12.90;4.03;;;;;;;5.54;78.56;100412.00;3536122;81;98723;-82
2022/04/10 16:49:59;;;;;;;8.43;2.73;;;;;;;5.56;78.44;100411.89;3552935;81;98746;-82
2022/04/10 16:55:07;;;;;;;8.20;3.20;;;;;;;5.58;78.94;100406.09;3530157;81;98589;-82
2022/04/10 17:00:17;;;;;;;12.83;4.87;;;;;;;5.58;78.58;100408.27;3525383;81;98478;-82
2022/04/10 17:05:21;;;;;;;16.77;5.97;;;;;;;5.54;78.71;100414.73;3528990;80;98591;-84
2022/04/10 17:10:23;;;;;;;14.53;5.43;;;;;;;5.48;79.50;100413.37;3555839;79;98692;-84
2022/04/10 17:15:24;;;;;;;12.07;4.80;;;;;;;5.44;79.08;100417.37;3515382;81;98704;-83
2022/04/10 17:20:29;;;;;;;6.53;2.70;;;;;;;5.37;79.39;100434.09;3533475;81;98674;-83
2022/04/10 17:25:30;;;;;;;7.83;2.57;;;;;;;5.25;79.41;100444.42;3539369;80;98537;-83
2022/04/10 17:30:31;;;;;;;9.37;2.70;;;;;;;5.14;79.38;100442.50;3555187;81;98472;-84
2022/04/10 17:35:32;;;;;;;7.27;2.63;;;;;;;5.07;79.43;100438.19;3543303;81;98305;-84
2022/04/10 17:40:33;;;;;;;9.00;3.67;;;;;;;4.96;79.54;100443.27;3549420;81;98885;-83
2022/04/10 17:45:35;;;;;;;11.55;6.03;;;;;;;4.82;79.63;100446.09;3549097;81;98439;-83
2022/04/10 17:50:37;;;;;;;15.70;6.13;;;;;;;4.73;79.96;100449.48;3565047;81;98683;-83
2022/04/10 17:55:39;;;;;;;15.87;7.20;;;;;;;4.61;80.56;100446.73;3572741;81;99072;-84
2022/04/10 18:00:40;;;;;;;18.37;9.80;;;;;;;4.49;80.74;100454.31;3600513;81;25868;-84
2022/04/10 18:05:43;;;;;;;17.67;7.93;;;;;;;4.41;81.08;100463.91;3606201;79;98444;-84
2022/04/10 18:10:44;;;;;;;16.07;7.33;;;;;;;4.30;81.55;100467.63;3608273;80;99046;-84
2022/04/10 18:15:45;;;;;;;30.55;10.35;;;;;;;4.22;82.14;100476.69;3564958;79;98837;-85
2022/04/10 18:20:46;;;;;;;32.60;11.53;;;;;;;4.12;82.84;100485.25;3595153;81;98903;-86
2022/04/10 18:25:48;;;;;;;49.40;17.63;;;;;;;4.03;83.37;100485.06;3591144;81;98791;-85
2022/04/10 18:30:50;;;;;;;60.60;22.33;;;;;;;3.96;83.71;100495.70;3606892;80;33182;-83
2022/04/10 18:35:55;;;;;;;51.40;19.03;;;;;;;3.95;84.09;100511.80;3604051;81;99067;-84
2022/04/10 18:40:56;;;;;;;13.63;6.00;;;;;;;3.94;84.69;100524.61;3585583;80;99022;-85
2022/04/10 18:45:59;;;;;;;12.43;4.95;;;;;;;3.94;85.67;100540.95;3570841;81;98765;-83
2022/04/10 18:51:00;;;;;;;9.30;3.93;;;;;;;3.94;86.44;100547.75;3571394;79;98684;-83
2022/04/10 18:56:01;;;;;;;6.40;2.83;;;;;;;3.98;86.72;100560.17;3595717;80;98525;-83
2022/04/10 19:01:04;;;;;;;9.27;3.07;;;;;;;3.94;87.41;100542.31;3588473;80;33357;-83
2022/04/10 19:06:11;;;;;;;9.27;3.60;;;;;;;3.91;87.52;100545.70;3613555;81;98506;-83
2022/04/10 19:11:13;;;;;;;7.20;3.10;;;;;;;3.91;87.46;100554.42;3572154;80;98373;-83
2022/04/10 19:16:17;;;;;;;9.77;3.27;;;;;;;3.87;87.55;100548.06;3575233;81;98584;-83
2022/04/10 19:21:19;;;;;;;21.23;6.80;;;;;;;3.81;87.51;100543.91;3588842;81;98546;-82
2022/04/10 19:26:23;;;;;;;17.37;7.40;;;;;;;3.77;87.12;100553.88;3584618;80;98739;-82
2022/04/10 19:31:25;;;;;;;24.60;9.10;;;;;;;3.65;87.66;100555.93;3596148;80;26368;-83
2022/04/10 19:36:28;;;;;;;19.32;7.10;;;;;;;3.50;87.51;100556.47;3589967;81;98432;-81
2022/04/10 19:41:29;;;;;;;64.53;29.57;;;;;;;3.42;87.31;100560.05;3587300;80;98533;-87
2022/04/10 19:46:32;;;;;;;34.30;13.88;;;;;;;3.35;88.67;100563.03;3589353;81;98870;-87
2022/04/10 19:51:34;;;;;;;35.63;13.50;;;;;;;3.12;88.08;100570.61;3589578;80;98830;-87
2022/04/10 19:56:35;;;;;;;30.70;15.20;;;;;;;3.00;88.24;100581.36;3615319;80;98848;-86
2022/04/10 20:01:36;;;;;;;31.80;13.70;;;;;;;2.94;88.24;100575.05;3618508;80;98047;-86
2022/04/10 20:06:38;;;;;;;42.17;18.70;;;;;;;2.83;87.99;100573.23;3597776;80;98452;-85
2022/04/10 20:11:40;;;;;;;42.03;16.70;;;;;;;2.75;87.87;100575.41;3597749;80;97946;-86
2022/04/10 20:16:43;;;;;;;42.30;18.93;;;;;;;2.72;87.82;100588.27;3609963;80;98887;-86
2022/04/10 20:21:44;;;;;;;43.20;16.77;;;;;;;2.70;87.81;100589.16;3610891;80;99319;-86
2022/04/10 20:26:47;;;;;;;40.63;15.23;;;;;;;2.58;87.53;100589.56;3594934;80;98816;-85
2022/04/10 20:31:48;;;;;;;30.57;13.17;;;;;;;2.50;87.50;100591.16;3626012;80;99284;-86
2022/04/10 20:36:49;;;;;;;27.67;12.10;;;;;;;2.36;87.72;100590.50;3623026;80;98426;-86
2022/04/10 20:41:50;;;;;;;25.60;12.37;;;;;;;2.33;87.82;100598.48;3640940;80;98765;-86
2022/04/10 20:46:51;;;;;;;26.60;12.60;;;;;;;2.28;88.15;100602.16;3614180;80;98833;-86
2022/04/10 20:51:52;;;;;;;24.33;12.40;;;;;;;2.18;87.92;100602.47;3629606;80;98895;-86
2022/04/10 20:56:56;;;;;;;24.80;12.70;;;;;;;2.09;87.90;100607.06;3633576;80;98717;-86
2022/04/10 21:01:56;;;;;;;26.67;12.27;;;;;;;2.01;87.61;100609.22;3624208;79;99300;-86
2022/04/10 21:06:57;;;;;;;24.03;12.47;;;;;;;1.90;88.03;100607.91;3622003;80;98448;-86
2022/04/10 21:11:59;;;;;;;28.98;13.45;;;;;;;1.82;88.42;100609.25;3620391;79;97814;-86
2022/04/10 21:17:00;;;;;;;24.50;12.60;;;;;;;1.70;88.86;100606.34;3610418;80;99211;-86
2022/04/10 21:22:01;;;;;;;29.20;12.60;;;;;;;1.63;89.77;100610.85;3642153;80;98074;-86
2022/04/10 21:27:02;;;;;;;22.03;10.03;;;;;;;1.54;90.88;100614.08;3621960;80;99149;-85
2022/04/10 21:32:04;;;;;;;21.93;9.27;;;;;;;1.53;91.82;100624.69;3599980;80;99126;-86
2022/04/10 21:37:05;;;;;;;19.63;9.27;;;;;;;1.46;92.33;100624.34;3614561;80;98657;-86
2022/04/10 21:42:06;;;;;;;18.80;8.67;;;;;;;1.44;92.67;100625.77;3604360;80;97647;-86
2022/04/10 21:47:07;;;;;;;22.80;10.30;;;;;;;1.39;92.70;100629.96;3615531;79;98845;-86
2022/04/10 21:52:09;;;;;;;27.32;10.58;;;;;;;1.32;92.68;100622.27;3626645;79;98757;-86
2022/04/10 21:57:10;;;;;;;22.80;9.40;;;;;;;1.30;92.87;100631.81;3601446;80;98736;-87
2022/04/10 22:02:12;;;;;;;23.70;8.80;;;;;;;1.23;92.89;100632.28;3609316;80;98679;-86
2022/04/10 22:07:12;;;;;;;16.90;7.47;;;;;;;1.18;92.85;100639.18;3595537;80;98754;-87
2022/04/10 22:12:14;;;;;;;15.33;6.03;;;;;;;1.13;92.78;100639.31;3577666;80;99067;-87
2022/04/10 22:17:15;;;;;;;15.93;6.23;;;;;;;1.09;93.38;100656.50;3590854;80;98672;-87
2022/04/10 22:22:16;;;;;;;16.07;6.37;;;;;;;1.03;93.73;100652.29;3592397;80;98649;-86
2022/04/10 22:27:18;;;;;;;15.50;5.40;;;;;;;0.98;94.09;100658.64;3572528;80;98690;-87
2022/04/10 22:32:19;;;;;;;16.03;5.37;;;;;;;0.96;94.40;100660.87;3609804;80;98682;-87
2022/04/10 22:37:20;;;;;;;14.77;4.87;;;;;;;0.90;94.33;100664.81;3599150;80;97677;-86
2022/04/10 22:42:21;;;;;;;13.63;4.70;;;;;;;0.86;94.86;100659.75;3632174;80;98655;-86
2022/04/10 22:47:23;;;;;;;11.77;5.53;;;;;;;0.84;95.70;100669.30;3610117;80;98861;-86
2022/04/10 22:52:24;;;;;;;17.53;6.40;;;;;;;0.80;95.24;100670.47;3617831;80;97784;-86
2022/04/10 22:57:25;;;;;;;17.77;5.80;;;;;;;0.77;95.55;100669.70;3620930;79;98667;-86
2022/04/10 23:02:27;;;;;;;13.87;6.07;;;;;;;0.72;95.44;100672.53;3630013;80;98709;-86
2022/04/10 23:07:28;;;;;;;12.40;4.73;;;;;;;0.69;95.51;100683.18;3601971;80;98634;-87
2022/04/10 23:12:29;;;;;;;14.73;4.87;;;;;;;0.66;95.49;100677.82;3578564;80;98333;-86
2022/04/10 23:17:30;;;;;;;17.37;5.30;;;;;;;0.64;95.44;100688.70;3593920;80;98518;-87
2022/04/10 23:22:31;;;;;;;14.80;4.77;;;;;;;0.63;95.83;100686.57;3612486;79;98954;-86
2022/04/10 23:27:32;;;;;;;17.62;4.47;;;;;;;0.62;96.22;100693.64;3610456;80;98660;-87
2022/04/10 23:32:42;;;;;;;11.27;4.60;;;;;;;0.63;96.48;100693.88;3592552;79;98974;-87
2022/04/10 23:37:43;;;;;;;10.88;4.90;;;;;;;0.61;96.59;100697.46;3613423;80;99108;-87
2022/04/10 23:42:47;;;;;;;15.23;4.73;;;;;;;0.59;96.64;100698.30;3601500;80;31606;-87
2022/04/10 23:47:48;;;;;;;14.00;4.58;;;;;;;0.58;96.82;100700.77;3598838;80;98605;-86
2022/04/10 23:52:49;;;;;;;16.53;3.90;;;;;;;0.59;97.44;100701.00;3626296;80;98657;-86